createdAt,value
2019-03-29T00:02:06.051Z,6.43
2019-03-29T00:06:10.902Z,6.50
2019-03-29T00:10:15.901Z,5.93
2019-03-29T00:14:23.377Z,6.50
2019-03-29T00:18:27.187Z,6.73
2019-03-29T00:22:31.936Z,6.03
2019-03-29T00:26:36.663Z,6.83
2019-03-29T00:30:41.988Z,5.53
2019-03-29T00:34:46.832Z,6.60
2019-03-29T00:38:51.694Z,5.57
2019-03-29T00:42:56.448Z,6.67
2019-03-29T00:47:01.198Z,5.87
2019-03-29T00:51:06.046Z,6.17
2019-03-29T00:55:10.807Z,6.07
2019-03-29T00:59:15.525Z,6.23
2019-03-29T01:03:20.582Z,5.73
2019-03-29T01:07:25.702Z,6.93
2019-03-29T01:11:30.431Z,6.10
2019-03-29T01:15:38.257Z,6.33
2019-03-29T01:19:43.466Z,6.13
2019-03-29T01:23:48.228Z,6.30
2019-03-29T01:27:52.919Z,6.30
2019-03-29T01:31:57.674Z,5.67
2019-03-29T01:36:03.265Z,5.30
2019-03-29T01:40:09.133Z,5.50
2019-03-29T01:44:14.087Z,6.27
2019-03-29T01:48:18.833Z,6.83
2019-03-29T01:52:23.867Z,5.77
2019-03-29T01:56:28.615Z,6.40
2019-03-29T02:00:36.033Z,7.17
2019-03-29T02:04:41.103Z,5.83
2019-03-29T02:08:45.794Z,5.63
2019-03-29T02:12:50.946Z,5.73
2019-03-29T02:16:56.025Z,5.60
2019-03-29T02:21:01.111Z,5.33
2019-03-29T02:25:06.582Z,5.50
2019-03-29T02:29:11.329Z,5.40
2019-03-29T02:33:16.170Z,4.73
2019-03-29T02:37:20.908Z,5.57
2019-03-29T02:41:25.751Z,5.57
2019-03-29T02:45:30.804Z,5.90
2019-03-29T02:49:35.877Z,4.90
2019-03-29T02:53:40.729Z,5.67
2019-03-29T02:57:45.821Z,5.83
2019-03-29T03:01:50.805Z,5.37
2019-03-29T03:05:55.583Z,5.53
2019-03-29T03:10:00.600Z,5.53
2019-03-29T03:14:05.442Z,5.77
2019-03-29T03:18:10.246Z,5.57
2019-03-29T03:22:14.978Z,5.13
2019-03-29T03:26:19.722Z,5.27
2019-03-29T03:30:24.490Z,6.97
2019-03-29T03:34:29.212Z,5.60
2019-03-29T03:38:34.064Z,5.63
2019-03-29T03:42:38.819Z,4.83
2019-03-29T03:46:43.588Z,5.67
2019-03-29T03:50:48.318Z,5.47
2019-03-29T03:54:53.047Z,5.07
2019-03-29T03:58:59.172Z,5.20
2019-03-29T04:03:03.892Z,5.73
2019-03-29T04:07:08.663Z,5.60
2019-03-29T04:11:13.383Z,6.23
2019-03-29T04:15:18.567Z,4.77
2019-03-29T04:19:23.392Z,5.57
2019-03-29T04:23:28.135Z,5.90
2019-03-29T04:27:32.842Z,4.87
2019-03-29T04:31:37.593Z,5.87
2019-03-29T04:35:42.436Z,5.90
2019-03-29T04:39:47.174Z,5.33
2019-03-29T04:43:51.933Z,5.67
2019-03-29T04:47:56.664Z,5.77
2019-03-29T04:52:01.408Z,5.10
2019-03-29T04:56:06.149Z,5.30
2019-03-29T05:00:11.115Z,5.40
2019-03-29T05:04:15.840Z,7.73
2019-03-29T05:08:20.589Z,5.90
2019-03-29T05:12:25.417Z,6.40
2019-03-29T05:16:30.176Z,6.07
2019-03-29T05:20:34.873Z,6.57
2019-03-29T05:24:39.605Z,6.57
2019-03-29T05:28:44.473Z,6.23
2019-03-29T05:32:49.259Z,6.40
2019-03-29T05:36:54.057Z,5.53
2019-03-29T05:40:58.889Z,6.30
2019-03-29T05:45:03.647Z,6.03
2019-03-29T05:49:08.475Z,7.23
2019-03-29T05:53:13.594Z,5.80
2019-03-29T05:57:18.787Z,6.30
2019-03-29T06:01:23.514Z,7.43
2019-03-29T06:05:28.360Z,6.87
2019-03-29T06:09:35.081Z,7.93
2019-03-29T06:13:40.098Z,7.53
2019-03-29T06:17:48.771Z,7.30
2019-03-29T06:21:51.389Z,6.90
2019-03-29T06:25:56.158Z,8.50
2019-03-29T06:30:00.854Z,7.70
2019-03-29T06:34:05.654Z,7.80
2019-03-29T06:38:11.307Z,7.17
2019-03-29T06:42:16.115Z,7.30
2019-03-29T06:46:20.865Z,6.70
2019-03-29T06:50:25.659Z,7.73
2019-03-29T06:54:30.350Z,7.40
2019-03-29T06:58:35.084Z,7.17
2019-03-29T07:02:39.838Z,6.73
2019-03-29T07:06:44.583Z,6.80
2019-03-29T07:10:49.383Z,6.53
2019-03-29T07:14:54.127Z,7.17
2019-03-29T07:18:58.874Z,7.43
2019-03-29T07:23:03.636Z,7.00
2019-03-29T07:27:08.332Z,7.97
2019-03-29T07:31:13.116Z,6.97
2019-03-29T07:35:17.886Z,6.43
2019-03-29T07:39:22.736Z,7.37
2019-03-29T07:43:27.543Z,7.00
2019-03-29T07:47:32.266Z,7.13
2019-03-29T07:51:37.076Z,7.20
2019-03-29T07:55:41.839Z,7.17
2019-03-29T07:59:46.697Z,7.60
2019-03-29T08:03:52.526Z,7.20
2019-03-29T08:07:58.062Z,7.40
2019-03-29T08:12:03.257Z,7.43
2019-03-29T08:16:08.034Z,8.17
2019-03-29T08:20:38.189Z,7.00
2019-03-29T08:24:19.590Z,6.37
2019-03-29T08:28:24.360Z,7.70
2019-03-29T08:32:29.556Z,7.20
2019-03-29T08:36:34.660Z,6.83
2019-03-29T08:40:39.428Z,7.07
2019-03-29T08:44:44.178Z,7.20
2019-03-29T08:48:49.060Z,6.83
2019-03-29T08:52:53.748Z,7.53
2019-03-29T08:56:58.506Z,6.73
2019-03-29T09:01:03.276Z,7.10
2019-03-29T09:05:08.408Z,6.83
2019-03-29T09:09:13.153Z,6.60
2019-03-29T09:13:17.925Z,6.73
2019-03-29T09:17:22.659Z,5.90
2019-03-29T09:21:27.420Z,6.33
2019-03-29T09:25:32.114Z,4.57
2019-03-29T09:29:37.081Z,3.40
2019-03-29T09:33:41.927Z,4.47
2019-03-29T09:37:46.718Z,4.83
2019-03-29T09:41:51.526Z,4.53
2019-03-29T09:45:56.384Z,4.13
2019-03-29T09:50:01.129Z,4.87
2019-03-29T09:54:05.877Z,4.50
2019-03-29T09:58:10.672Z,4.60
2019-03-29T10:02:15.528Z,3.93
2019-03-29T10:06:20.436Z,5.03
2019-03-29T10:10:25.190Z,4.60
2019-03-29T10:14:33.321Z,4.80
2019-03-29T10:18:36.555Z,4.10
2019-03-29T10:22:41.332Z,4.47
2019-03-29T10:26:46.082Z,4.20
2019-03-29T10:30:50.947Z,4.30
2019-03-29T10:34:55.834Z,4.37
2019-03-29T10:39:00.938Z,3.60
2019-03-29T10:43:05.994Z,3.87
2019-03-29T10:47:10.898Z,4.40
2019-03-29T10:51:15.637Z,4.03
2019-03-29T10:55:20.387Z,4.10
2019-03-29T10:59:27.749Z,4.13
2019-03-29T11:03:31.722Z,4.53
2019-03-29T11:07:36.475Z,3.67
2019-03-29T11:11:41.180Z,4.00
2019-03-29T11:15:45.941Z,4.30
2019-03-29T11:19:50.780Z,4.43
2019-03-29T11:23:55.533Z,4.40
2019-03-29T11:28:00.780Z,4.33
2019-03-29T11:32:05.502Z,4.20
2019-03-29T11:36:10.517Z,4.03
2019-03-29T11:40:15.626Z,4.33
2019-03-29T11:44:20.384Z,3.90
2019-03-29T11:48:25.244Z,3.83
2019-03-29T11:52:30.057Z,4.50
2019-03-29T11:56:34.781Z,4.23
2019-03-29T12:00:41.187Z,3.63
2019-03-29T12:04:45.892Z,4.00
2019-03-29T12:08:50.631Z,3.90
2019-03-29T12:12:55.374Z,3.67
2019-03-29T12:17:00.136Z,4.30
2019-03-29T12:21:05.048Z,3.63
2019-03-29T12:25:09.811Z,3.47
2019-03-29T12:29:14.622Z,4.00
2019-03-29T12:33:19.416Z,3.23
2019-03-29T12:37:24.206Z,4.23
2019-03-29T12:41:29.167Z,3.60
2019-03-29T12:45:35.580Z,4.07
2019-03-29T12:49:40.576Z,3.80
2019-03-29T12:53:45.439Z,3.30
2019-03-29T12:57:50.170Z,3.90
2019-03-29T13:01:55.103Z,3.47
2019-03-29T13:05:59.824Z,3.70
2019-03-29T13:10:05.150Z,3.80
2019-03-29T13:14:10.979Z,4.13
2019-03-29T13:18:15.879Z,3.07
2019-03-29T13:22:20.856Z,3.53
2019-03-29T13:26:25.679Z,2.93
2019-03-29T13:30:30.435Z,3.53
2019-03-29T13:34:35.265Z,3.40
2019-03-29T13:38:40.031Z,3.60
2019-03-29T13:42:45.001Z,3.80
2019-03-29T13:46:50.382Z,3.23
2019-03-29T13:50:55.139Z,3.63
2019-03-29T13:54:59.901Z,3.40
2019-03-29T13:59:04.770Z,3.37
2019-03-29T14:03:09.604Z,3.07
2019-03-29T14:07:14.377Z,3.27
2019-03-29T14:11:19.284Z,3.17
2019-03-29T14:15:24.053Z,3.20
2019-03-29T14:19:30.505Z,3.33
2019-03-29T14:23:37.711Z,3.37
2019-03-29T14:27:42.600Z,3.67
2019-03-29T14:31:47.664Z,3.00
2019-03-29T14:35:53.282Z,3.27
2019-03-29T14:39:58.018Z,3.20
2019-03-29T14:44:02.769Z,3.30
2019-03-29T14:48:07.546Z,2.90
2019-03-29T14:52:12.316Z,3.67
2019-03-29T14:56:17.052Z,3.10
2019-03-29T15:00:36.534Z,3.37
2019-03-29T15:04:41.689Z,3.13
2019-03-29T15:08:49.731Z,3.30
2019-03-29T15:12:53.993Z,3.27
2019-03-29T15:16:58.752Z,3.23
2019-03-29T15:21:03.489Z,2.97
2019-03-29T15:25:09.662Z,3.10
2019-03-29T15:29:14.671Z,3.60
2019-03-29T15:33:19.417Z,3.23
2019-03-29T15:37:24.194Z,3.10
2019-03-29T15:41:29.702Z,2.80
2019-03-29T15:45:34.967Z,3.30
2019-03-29T15:49:40.398Z,3.53
2019-03-29T15:53:45.908Z,3.03
2019-03-29T15:57:50.637Z,3.30
2019-03-29T16:01:55.762Z,3.30
2019-03-29T16:06:01.684Z,3.20
2019-03-29T16:10:07.085Z,3.37
2019-03-29T16:14:11.827Z,3.17
2019-03-29T16:18:16.690Z,3.40
2019-03-29T16:22:22.710Z,3.57
2019-03-29T16:26:27.551Z,3.33
2019-03-29T16:30:33.925Z,3.27
2019-03-29T16:34:40.431Z,3.40
2019-03-29T16:38:45.514Z,3.23
2019-03-29T16:42:50.827Z,3.63
2019-03-29T16:46:56.486Z,3.77
2019-03-29T16:51:02.171Z,3.07
2019-03-29T16:55:13.656Z,3.57
2019-03-29T16:59:14.706Z,3.43
2019-03-29T17:03:21.067Z,2.90
2019-03-29T17:07:26.154Z,3.27
2019-03-29T17:11:31.931Z,3.50
2019-03-29T17:15:36.666Z,3.03
2019-03-29T17:19:41.748Z,3.20
2019-03-29T17:23:47.666Z,3.03
2019-03-29T17:27:52.918Z,3.70
2019-03-29T17:31:59.694Z,3.60
2019-03-29T17:36:04.970Z,3.97
2019-03-29T17:40:10.587Z,3.37
2019-03-29T17:44:15.401Z,3.53
2019-03-29T17:48:21.235Z,3.33
2019-03-29T17:52:27.014Z,3.47
2019-03-29T17:56:32.385Z,3.37
2019-03-29T18:00:38.378Z,3.37
2019-03-29T18:04:43.097Z,3.33
2019-03-29T18:08:48.890Z,3.77
2019-03-29T18:12:53.908Z,4.30
2019-03-29T18:16:58.762Z,3.60
2019-03-29T18:21:03.481Z,4.70
2019-03-29T18:25:08.660Z,4.83
2019-03-29T18:29:13.936Z,4.70
2019-03-29T18:33:19.919Z,4.30
2019-03-29T18:37:25.295Z,4.30
2019-03-29T18:41:30.837Z,4.73
2019-03-29T18:45:35.502Z,5.43
2019-03-29T18:49:41.422Z,4.67
2019-03-29T18:53:47.269Z,4.20
2019-03-29T18:57:53.168Z,4.53
2019-03-29T19:01:59.784Z,5.17
2019-03-29T19:06:04.900Z,4.67
2019-03-29T19:10:10.534Z,5.40
2019-03-29T19:14:15.842Z,5.87
2019-03-29T19:18:21.015Z,6.53
2019-03-29T19:22:26.200Z,5.87
2019-03-29T19:26:31.070Z,5.80
2019-03-29T19:30:36.458Z,4.50
2019-03-29T19:34:41.427Z,5.23
2019-03-29T19:38:46.613Z,6.63
2019-03-29T19:42:52.498Z,6.77
2019-03-29T19:46:57.568Z,5.93
2019-03-29T19:51:02.563Z,6.10
2019-03-29T19:55:07.556Z,6.07
2019-03-29T19:59:12.349Z,5.80
2019-03-29T20:03:17.136Z,5.03
2019-03-29T20:07:21.977Z,5.57
2019-03-29T20:11:26.856Z,5.33
2019-03-29T20:15:31.655Z,5.40
2019-03-29T20:19:36.493Z,5.53
2019-03-29T20:23:41.564Z,5.73
2019-03-29T20:27:46.375Z,5.73
2019-03-29T20:31:51.155Z,4.97
2019-03-29T20:35:56.104Z,5.13
2019-03-29T20:40:01.725Z,6.53
2019-03-29T20:44:07.351Z,5.87
2019-03-29T20:48:12.907Z,6.20
2019-03-29T20:52:18.673Z,5.50
2019-03-29T20:56:23.691Z,5.57
2019-03-29T21:00:28.453Z,6.83
2019-03-29T21:04:33.365Z,5.97
2019-03-29T21:08:38.155Z,5.43
2019-03-29T21:12:43.457Z,6.17
2019-03-29T21:16:48.656Z,7.60
2019-03-29T21:20:53.448Z,5.83
2019-03-29T21:24:58.244Z,6.40
2019-03-29T21:29:03.163Z,6.30
2019-03-29T21:33:07.918Z,6.73
2019-03-29T21:37:12.959Z,6.63
2019-03-29T21:41:17.720Z,6.23
2019-03-29T21:45:28.726Z,6.67
2019-03-29T21:49:29.072Z,6.47
2019-03-29T21:53:33.887Z,6.43
2019-03-29T21:57:41.622Z,6.07
2019-03-29T22:01:47.537Z,6.33
2019-03-29T22:05:52.424Z,6.00
2019-03-29T22:09:57.245Z,7.00
2019-03-29T22:14:02.000Z,6.57
2019-03-29T22:18:07.090Z,6.23
2019-03-29T22:22:11.889Z,6.17
2019-03-29T22:26:16.828Z,5.80
2019-03-29T22:30:22.183Z,6.20
2019-03-29T22:34:28.458Z,6.90
2019-03-29T22:38:33.636Z,6.13
2019-03-29T22:42:38.832Z,5.70
2019-03-29T22:46:43.766Z,5.87
2019-03-29T22:50:48.718Z,5.73
2019-03-29T22:54:53.532Z,6.93
2019-03-29T22:58:58.428Z,5.80
2019-03-29T23:03:03.368Z,5.77
2019-03-29T23:07:08.739Z,6.10
2019-03-29T23:11:14.994Z,6.07
2019-03-29T23:15:19.876Z,5.30
2019-03-29T23:19:24.689Z,5.57
2019-03-29T23:23:29.553Z,5.80
2019-03-29T23:27:34.750Z,5.43
2019-03-29T23:31:39.495Z,5.17
2019-03-29T23:35:44.538Z,4.73
2019-03-29T23:39:49.375Z,5.27
2019-03-29T23:43:54.137Z,5.57
2019-03-29T23:47:58.884Z,5.60
2019-03-29T23:52:03.665Z,5.70
2019-03-29T23:56:08.385Z,5.57
